Time;durP1;ratioP1;P1;durP2;ratioP2;P2;SDS_P1;SDS_P2;PMS_P1;PMS_P2;Temp;Humidity;BMP_temperature;BMP_pressure;BME280_temperature;BME280_humidity;BME280_pressure;Samples;Min_cycle;Max_cycle;Signal;HPM_P1;HPM_P2
2021/09/02 00:00:40;;;;;;;10.10;3.20;;;;;;;13.50;82.60;101059.79;112934;1203;24133;-80
2021/09/02 00:03:12;;;;;;;11.10;3.60;;;;;;;13.47;82.69;101058.32;113225;1202;24204;-81
2021/09/02 00:05:43;;;;;;;10.70;3.70;;;;;;;13.45;82.86;101055.55;113278;1202;23103;-81
2021/09/02 00:08:14;;;;;;;12.60;4.40;;;;;;;13.42;83.02;101061.73;113245;1202;23190;-80
2021/09/02 00:10:46;;;;;;;15.20;4.40;;;;;;;13.40;83.24;101055.04;113237;1203;22452;-81
2021/09/02 00:13:17;;;;;;;12.90;4.10;;;;;;;13.38;83.25;101051.29;112840;1204;25164;-81
2021/09/02 00:15:47;;;;;;;15.70;4.40;;;;;;;13.36;83.37;101057.72;112874;1205;24070;-80
2021/09/02 00:18:18;;;;;;;13.30;3.90;;;;;;;13.34;83.47;101057.79;112898;1204;23765;-80
2021/09/02 00:20:49;;;;;;;15.20;5.10;;;;;;;13.32;83.50;101058.00;113192;1204;22471;-81
2021/09/02 00:23:20;;;;;;;11.60;4.40;;;;;;;13.31;83.68;101058.52;113271;1201;23105;-80
2021/09/02 00:25:51;;;;;;;19.40;4.70;;;;;;;13.29;83.69;101058.64;113270;1203;24141;-80
2021/09/02 00:28:32;;;;;;;;;;;;;;;;;;;;;
2021/09/02 00:31:04;;;;;;;16.00;4.50;;;;;;;13.26;83.83;101057.83;113297;1204;22553;-80
2021/09/02 00:33:35;;;;;;;12.50;4.50;;;;;;;13.24;83.87;101057.10;113240;1205;25204;-83
2021/09/02 00:36:07;;;;;;;13.60;5.00;;;;;;;13.22;83.85;101058.27;113237;1205;22525;-81
2021/09/02 00:38:38;;;;;;;12.80;4.60;;;;;;;13.20;84.01;101057.13;113247;1202;22476;-81
2021/09/02 00:41:10;;;;;;;17.60;5.00;;;;;;;13.17;84.15;101061.45;112873;1204;23101;-81
2021/09/02 00:43:42;;;;;;;14.10;5.30;;;;;;;13.13;84.32;101058.56;112734;1203;22440;-80
2021/09/02 00:46:15;;;;;;;19.70;5.20;;;;;;;13.11;84.26;101056.63;112853;1205;22432;-80
2021/09/02 00:48:46;;;;;;;17.20;5.00;;;;;;;13.08;84.43;101051.88;113021;1205;24124;-80
2021/09/02 00:51:19;;;;;;;13.70;5.00;;;;;;;13.06;84.75;101053.18;113264;1205;25100;-80
2021/09/02 00:53:52;;;;;;;12.30;5.00;;;;;;;13.02;84.61;101051.77;112862;1204;25210;-80
2021/09/02 00:56:25;;;;;;;15.50;5.30;;;;;;;13.01;84.95;101051.03;112799;1204;24001;-80
2021/09/02 00:58:55;;;;;;;15.10;5.40;;;;;;;12.99;84.85;101049.61;113371;1205;22438;-80
2021/09/02 01:01:26;;;;;;;19.00;6.10;;;;;;;12.97;85.06;101047.95;113268;1204;25051;-82
2021/09/02 01:03:56;;;;;;;14.40;5.50;;;;;;;12.95;85.07;101054.27;113222;1205;22425;-80
2021/09/02 01:06:27;;;;;;;15.90;6.30;;;;;;;12.93;85.27;101054.83;113291;1202;22480;-80
2021/09/02 01:08:59;;;;;;;17.00;6.30;;;;;;;12.91;85.26;101051.13;112809;1204;25204;-80
2021/09/02 01:11:30;;;;;;;17.30;6.30;;;;;;;12.91;85.28;101051.82;112849;1204;22449;-80
2021/09/02 01:14:01;;;;;;;18.30;6.40;;;;;;;12.90;85.34;101054.75;112903;1203;22600;-80
2021/09/02 01:16:32;;;;;;;17.40;6.90;;;;;;;12.87;85.45;101059.83;113043;1204;22461;-81
2021/09/02 01:19:03;;;;;;;17.70;6.70;;;;;;;12.86;85.55;101059.66;113048;1204;23119;-82
2021/09/02 01:21:35;;;;;;;19.60;6.20;;;;;;;12.83;85.48;101066.17;113142;1203;22477;-81
2021/09/02 01:24:07;;;;;;;17.50;6.20;;;;;;;12.82;85.75;101065.23;113084;1206;25098;-81
2021/09/02 01:26:37;;;;;;;18.00;7.00;;;;;;;12.81;85.95;101064.48;112914;1205;22470;-80
2021/09/02 01:29:11;;;;;;;17.50;6.20;;;;;;;12.80;85.93;101068.12;112842;1204;25055;-81
2021/09/02 01:31:42;;;;;;;14.90;6.20;;;;;;;12.79;85.94;101065.82;112993;1205;24112;-81
2021/09/02 01:34:17;;;;;;;18.80;6.80;;;;;;;12.79;86.17;101067.41;112846;1206;22501;-82
2021/09/02 01:36:47;;;;;;;15.10;6.20;;;;;;;12.79;86.15;101067.96;112838;1202;22461;-82
2021/09/02 01:39:21;;;;;;;16.60;6.70;;;;;;;12.80;86.29;101069.77;112893;1205;24104;-80
2021/09/02 01:41:52;;;;;;;16.50;6.00;;;;;;;12.81;86.38;101071.10;113245;1206;22437;-80
2021/09/02 01:44:23;;;;;;;16.60;6.60;;;;;;;12.81;86.42;101070.85;112848;1203;22434;-80
2021/09/02 01:46:53;;;;;;;15.50;6.70;;;;;;;12.81;86.57;101063.82;112887;1202;24042;-80
2021/09/02 01:49:26;;;;;;;17.50;6.70;;;;;;;12.82;86.67;101065.78;112939;1205;24126;-80
2021/09/02 01:51:57;;;;;;;20.00;7.10;;;;;;;12.82;86.68;101062.27;112876;1202;22423;-80
2021/09/02 01:54:28;;;;;;;17.10;6.70;;;;;;;12.82;86.62;101064.87;112938;1202;22768;-81
2021/09/02 01:56:59;;;;;;;16.80;6.40;;;;;;;12.82;86.58;101066.55;112930;1203;22569;-80
2021/09/02 01:59:32;;;;;;;16.80;6.60;;;;;;;12.81;86.63;101067.24;112873;1203;22540;-80
2021/09/02 02:02:03;;;;;;;19.20;7.90;;;;;;;12.80;86.68;101063.45;112902;1202;23461;-80
2021/09/02 02:04:34;;;;;;;17.40;7.10;;;;;;;12.80;86.62;101066.10;112880;1206;22435;-80
2021/09/02 02:07:06;;;;;;;17.80;6.80;;;;;;;12.80;86.70;101066.91;112984;1202;22460;-81
2021/09/02 02:09:36;;;;;;;19.30;6.80;;;;;;;12.79;86.55;101070.15;112980;1202;22958;-80
2021/09/02 02:12:08;;;;;;;15.70;6.70;;;;;;;12.77;86.80;101069.04;113111;1202;24132;-83
2021/09/02 02:14:39;;;;;;;16.50;6.50;;;;;;;12.76;86.88;101071.35;113125;1202;22552;-81
2021/09/02 02:17:10;;;;;;;17.60;7.30;;;;;;;12.73;86.99;101075.83;113002;1203;22439;-81
2021/09/02 02:19:40;;;;;;;18.90;6.30;;;;;;;12.71;86.81;101077.45;113065;1202;25739;-84
2021/09/02 02:22:11;;;;;;;18.50;7.00;;;;;;;12.68;86.98;101074.77;113077;1202;22926;-81
2021/09/02 02:24:41;;;;;;;20.60;7.00;;;;;;;12.66;86.83;101068.31;113058;1202;22429;-81
2021/09/02 02:27:12;;;;;;;17.90;7.00;;;;;;;12.64;86.92;101070.19;113117;1203;22446;-81
2021/09/02 02:29:46;;;;;;;17.70;7.30;;;;;;;12.63;87.08;101073.11;113086;1202;22472;-82
2021/09/02 02:32:17;;;;;;;22.30;7.90;;;;;;;12.61;86.97;101072.02;112804;1202;22433;-81
2021/09/02 02:34:48;;;;;;;19.90;7.40;;;;;;;12.60;87.01;101073.92;112819;1202;24104;-80
2021/09/02 02:37:19;;;;;;;16.60;7.40;;;;;;;12.57;87.00;101075.14;112791;1200;24098;-81
2021/09/02 02:40:02;;;;;;;;;;;;;;;;;;;;;
2021/09/02 02:42:33;;;;;;;17.40;6.60;;;;;;;12.51;86.99;101077.44;112896;1202;22555;-80
2021/09/02 02:45:09;;;;;;;17.30;7.10;;;;;;;12.49;86.84;101077.06;112855;1202;24144;-79
2021/09/02 02:48:00;;;;;;;15.80;6.70;;;;;;;12.47;86.98;101081.17;112882;1202;22441;-79
2021/09/02 02:50:32;;;;;;;19.10;7.30;;;;;;;12.43;87.02;101081.04;113015;1202;22453;-79
2021/09/02 02:53:02;;;;;;;17.50;6.90;;;;;;;12.39;87.10;101076.41;113010;1205;22469;-80
2021/09/02 02:55:33;;;;;;;17.00;7.60;;;;;;;12.37;87.21;101074.93;113417;1204;25086;-80
2021/09/02 02:58:03;;;;;;;15.70;6.80;;;;;;;12.35;87.36;101080.63;113404;1203;24082;-79
2021/09/02 03:00:36;;;;;;;19.20;7.30;;;;;;;12.30;87.19;101075.88;113417;1202;24099;-79
2021/09/02 03:03:07;;;;;;;20.50;7.70;;;;;;;12.29;87.05;101081.23;113355;1202;22471;-79
2021/09/02 03:05:38;;;;;;;19.70;6.80;;;;;;;12.26;87.26;101084.84;113402;1202;23276;-80
2021/09/02 03:08:09;;;;;;;20.10;7.60;;;;;;;12.23;87.23;101078.23;113471;1202;23130;-79
2021/09/02 03:13:31;;;;;;;20.10;8.20;;;;;;;12.19;87.37;101082.16;113372;1202;24061;-79
2021/09/02 03:16:03;;;;;;;17.10;7.30;;;;;;;12.16;87.37;101086.30;113397;1203;24093;-79
2021/09/02 03:18:34;;;;;;;18.70;6.90;;;;;;;12.14;87.41;101091.77;113459;1203;22452;-79
2021/09/02 03:21:04;;;;;;;16.00;7.00;;;;;;;12.11;87.50;101094.50;113395;1202;22434;-79
2021/09/02 03:23:37;;;;;;;18.80;7.10;;;;;;;12.08;87.54;101090.14;113341;1202;22522;-78
2021/09/02 03:26:07;;;;;;;21.10;8.20;;;;;;;12.06;87.62;101089.77;113524;1200;22460;-78
2021/09/02 03:28:38;;;;;;;18.00;7.30;;;;;;;12.04;87.73;101095.62;113361;1204;22468;-79
2021/09/02 03:31:09;;;;;;;16.50;7.20;;;;;;;12.01;87.74;101095.29;113366;1203;22562;-79
2021/09/02 03:33:40;;;;;;;18.90;6.60;;;;;;;11.98;87.71;101096.29;113038;1202;23805;-78
2021/09/02 03:36:10;;;;;;;16.50;6.80;;;;;;;11.96;87.68;101096.31;113145;1202;23180;-78
2021/09/02 03:38:41;;;;;;;16.70;7.00;;;;;;;11.94;87.59;101099.67;113067;1203;22471;-79
2021/09/02 03:41:12;;;;;;;16.10;7.20;;;;;;;11.92;87.70;101098.72;113159;1202;24065;-79
2021/09/02 03:43:43;;;;;;;16.80;6.10;;;;;;;11.90;87.69;101104.65;113501;1203;22428;-79
2021/09/02 03:46:14;;;;;;;18.20;6.80;;;;;;;11.88;87.68;101105.55;113489;1203;22478;-79
2021/09/02 03:48:46;;;;;;;16.80;6.40;;;;;;;11.85;88.02;101105.91;113433;1202;22433;-78
2021/09/02 03:51:17;;;;;;;18.20;7.70;;;;;;;11.83;87.98;101107.86;113617;1202;22441;-78
2021/09/02 03:53:48;;;;;;;15.50;5.90;;;;;;;11.80;88.05;101115.32;113488;1205;22481;-79
2021/09/02 03:56:20;;;;;;;16.10;6.10;;;;;;;11.78;87.92;101112.15;113177;1200;22453;-78
2021/09/02 03:58:52;;;;;;;14.80;6.00;;;;;;;11.76;87.92;101110.00;113214;1203;24126;-78
2021/09/02 04:01:25;;;;;;;17.50;6.50;;;;;;;11.73;87.77;101109.41;113072;1206;24054;-79
2021/09/02 04:03:57;;;;;;;15.80;5.80;;;;;;;11.73;87.78;101114.29;113230;1206;22358;-78
2021/09/02 04:06:30;;;;;;;14.30;5.70;;;;;;;11.72;87.84;101114.33;113062;1203;25152;-78
2021/09/02 04:09:01;;;;;;;18.10;6.00;;;;;;;11.71;87.74;101112.36;112992;1204;22436;-78
2021/09/02 04:11:32;;;;;;;16.30;6.80;;;;;;;11.70;87.83;101112.08;113216;1203;22452;-79
2021/09/02 04:14:03;;;;;;;15.70;5.90;;;;;;;11.69;87.77;101114.29;113149;1203;25217;-78
2021/09/02 04:16:35;;;;;;;15.60;6.70;;;;;;;11.68;87.74;101116.35;113007;1202;24191;-78
2021/09/02 04:19:05;;;;;;;16.00;6.30;;;;;;;11.68;87.64;101119.70;113136;1206;22434;-76
2021/09/02 04:21:36;;;;;;;20.10;6.50;;;;;;;11.68;87.71;101120.57;113037;1202;24144;-79
2021/09/02 04:24:07;;;;;;;15.90;5.80;;;;;;;11.69;87.52;101120.44;113010;1206;24137;-79
2021/09/02 04:26:38;;;;;;;16.00;6.10;;;;;;;11.69;87.07;101123.65;113101;1202;25216;-78
2021/09/02 04:29:09;;;;;;;12.40;4.70;;;;;;;11.68;86.86;101124.58;113033;1201;25213;-78
2021/09/02 04:31:40;;;;;;;16.00;5.80;;;;;;;11.67;86.75;101126.88;113048;1202;22441;-77
2021/09/02 04:34:11;;;;;;;12.10;4.70;;;;;;;11.65;86.73;101129.45;113154;1202;22543;-78
2021/09/02 04:36:41;;;;;;;16.20;6.40;;;;;;;11.66;86.86;101129.05;113198;1202;23705;-78
2021/09/02 04:39:12;;;;;;;17.10;6.10;;;;;;;11.67;86.79;101133.80;113759;1202;22549;-78
2021/09/02 04:41:43;;;;;;;14.00;5.40;;;;;;;11.68;87.10;101134.43;113740;1200;22402;-78
2021/09/02 04:44:14;;;;;;;17.10;6.70;;;;;;;11.69;87.38;101132.69;113558;1202;22674;-79
2021/09/02 04:46:45;;;;;;;21.40;6.20;;;;;;;11.68;86.78;101139.59;113291;1202;22461;-78
2021/09/02 04:49:16;;;;;;;15.30;6.10;;;;;;;11.68;87.14;101137.30;113359;1202;24048;-79
2021/09/02 04:51:47;;;;;;;18.90;7.10;;;;;;;11.69;87.21;101135.17;113428;1202;22770;-79
2021/09/02 04:54:19;;;;;;;17.60;7.70;;;;;;;11.71;87.37;101133.65;113458;1202;22553;-78
2021/09/02 04:56:50;;;;;;;16.10;6.40;;;;;;;11.74;87.71;101136.70;112983;1202;22399;-78
2021/09/02 04:59:21;;;;;;;20.90;7.20;;;;;;;11.78;87.75;101137.27;113039;1202;22441;-78
2021/09/02 05:01:51;;;;;;;18.40;7.90;;;;;;;11.80;87.61;101144.66;112972;1202;22448;-78
2021/09/02 05:04:22;;;;;;;16.50;7.10;;;;;;;11.83;87.60;101150.13;113160;1202;24127;-78
2021/09/02 05:06:53;;;;;;;17.00;6.80;;;;;;;11.86;87.44;101153.77;113214;1202;22471;-77
2021/09/02 05:09:24;;;;;;;18.00;6.20;;;;;;;11.89;87.63;101158.59;113415;1203;25056;-78
2021/09/02 05:11:56;;;;;;;18.40;6.00;;;;;;;11.92;87.40;101153.09;113150;1203;22447;-78
2021/09/02 05:14:27;;;;;;;18.20;6.70;;;;;;;11.96;87.56;101149.98;113321;1202;24067;-77
2021/09/02 05:16:58;;;;;;;20.80;7.80;;;;;;;12.00;87.76;101149.86;113662;1204;23788;-77
2021/09/02 05:19:32;;;;;;;17.30;7.60;;;;;;;12.04;88.07;101149.30;113827;1200;24424;-77
2021/09/02 05:22:05;;;;;;;17.90;6.90;;;;;;;12.08;88.00;101152.77;114048;1206;23615;-78
2021/09/02 05:24:35;;;;;;;18.80;7.00;;;;;;;12.13;88.18;101150.15;114374;1202;22555;-78
2021/09/02 05:27:07;;;;;;;17.30;7.00;;;;;;;12.18;88.45;101150.81;114632;1206;22687;-78
2021/09/02 05:29:38;;;;;;;18.00;7.00;;;;;;;12.24;88.57;101154.66;114460;1202;22469;-79
2021/09/02 05:32:12;;;;;;;17.80;7.70;;;;;;;12.28;88.42;101151.63;113898;1202;22706;-80
2021/09/02 05:34:43;;;;;;;17.00;6.90;;;;;;;12.33;88.47;101152.46;114150;1202;23430;-78
2021/09/02 05:37:15;;;;;;;19.30;6.90;;;;;;;12.39;88.74;101154.36;113771;1202;24861;-78
2021/09/02 05:39:48;;;;;;;17.90;6.10;;;;;;;12.44;88.69;101158.30;113778;1195;23389;-78
2021/09/02 05:42:19;;;;;;;20.00;6.50;;;;;;;12.49;88.87;101159.66;113432;1203;22467;-79
2021/09/02 05:47:43;;;;;;;16.60;6.70;;;;;;;12.60;89.01;101165.08;113096;1201;24248;-78
2021/09/02 05:50:14;;;;;;;16.70;6.00;;;;;;;12.64;89.01;101169.17;113032;1205;23737;-77
2021/09/02 05:52:44;;;;;;;17.10;6.60;;;;;;;12.69;89.04;101177.04;112903;1203;22751;-77
2021/09/02 05:55:15;;;;;;;15.00;5.80;;;;;;;12.74;88.97;101174.98;112629;1202;25337;-79
2021/09/02 05:57:46;;;;;;;16.60;5.90;;;;;;;12.79;89.04;101176.96;112652;1201;22466;-78
2021/09/02 06:00:18;;;;;;;16.70;5.90;;;;;;;12.83;89.04;101176.92;112598;1205;22460;-79
2021/09/02 06:02:49;;;;;;;18.20;5.80;;;;;;;12.87;88.93;101184.98;112638;1204;24487;-78
2021/09/02 06:08:11;;;;;;;15.70;6.20;;;;;;;12.93;88.80;101193.50;112626;1202;22453;-79
2021/09/02 06:10:42;;;;;;;14.70;6.10;;;;;;;12.98;89.03;101196.31;112647;1203;25179;-79
2021/09/02 06:13:13;;;;;;;12.70;4.50;;;;;;;13.04;88.98;101196.55;112700;1204;22460;-79
2021/09/02 06:15:45;;;;;;;23.30;7.20;;;;;;;13.07;88.76;101204.80;112759;1203;25197;-78
2021/09/02 06:18:16;;;;;;;16.60;5.40;;;;;;;13.11;88.75;101201.65;112770;1204;22919;-79
2021/09/02 06:20:47;;;;;;;17.60;5.50;;;;;;;13.16;88.92;101200.43;112817;1202;24191;-78
2021/09/02 06:23:18;;;;;;;18.30;6.00;;;;;;;13.21;88.57;101196.38;112710;1202;22450;-78
2021/09/02 06:25:49;;;;;;;16.30;5.70;;;;;;;13.24;88.60;101198.59;112649;1202;22467;-78
2021/09/02 06:28:20;;;;;;;17.80;5.40;;;;;;;13.29;88.71;101197.33;112542;1202;22453;-79
2021/09/02 06:30:54;;;;;;;13.60;4.60;;;;;;;13.34;88.59;101197.55;112703;1202;22458;-78
2021/09/02 06:33:27;;;;;;;11.40;4.20;;;;;;;13.38;88.42;101195.69;112837;1202;23357;-79
2021/09/02 06:35:58;;;;;;;14.30;4.70;;;;;;;13.42;88.50;101199.41;112625;1202;24067;-78
2021/09/02 06:38:29;;;;;;;12.70;4.50;;;;;;;13.45;88.24;101198.55;112628;1202;22457;-78
2021/09/02 06:41:00;;;;;;;14.80;5.70;;;;;;;13.48;88.40;101196.30;112666;1203;22820;-79
2021/09/02 06:43:31;;;;;;;12.60;4.90;;;;;;;13.52;88.16;101199.20;112630;1202;23105;-79
2021/09/02 06:46:02;;;;;;;14.00;4.50;;;;;;;13.57;88.36;101203.53;112559;1203;22448;-78
2021/09/02 06:48:33;;;;;;;13.50;4.80;;;;;;;13.62;88.38;101203.19;112762;1202;22626;-79
2021/09/02 06:51:05;;;;;;;14.20;5.30;;;;;;;13.67;88.16;101205.34;112902;1204;22457;-80
2021/09/02 06:53:36;;;;;;;16.40;5.20;;;;;;;13.73;88.18;101205.30;112850;1202;22452;-80
2021/09/02 06:56:11;;;;;;;12.60;4.40;;;;;;;13.79;88.41;101208.99;113149;1203;24057;-79
2021/09/02 06:58:43;;;;;;;12.30;4.20;;;;;;;13.85;88.22;101202.48;112560;1202;24112;-79
2021/09/02 07:01:15;;;;;;;14.50;4.90;;;;;;;13.91;88.31;101205.27;112848;1203;22465;-79
2021/09/02 07:03:45;;;;;;;14.00;4.70;;;;;;;13.99;88.18;101207.54;112864;1202;22446;-79
2021/09/02 07:06:16;;;;;;;14.90;4.50;;;;;;;14.06;87.85;101210.63;112823;1202;22447;-79
2021/09/02 07:08:47;;;;;;;11.90;4.30;;;;;;;14.09;87.56;101221.48;112816;1202;22726;-79
2021/09/02 07:11:18;;;;;;;11.10;3.60;;;;;;;14.15;87.74;101226.27;112912;1205;24098;-79
2021/09/02 07:13:49;;;;;;;12.60;4.30;;;;;;;14.20;87.69;101219.48;112892;1204;22448;-79
2021/09/02 07:16:20;;;;;;;15.90;4.40;;;;;;;14.27;87.64;101217.69;112621;1202;22437;-79
2021/09/02 07:18:51;;;;;;;12.40;4.20;;;;;;;14.32;87.39;101223.28;112603;1202;25050;-79
2021/09/02 07:21:25;;;;;;;17.60;4.50;;;;;;;14.36;87.28;101221.13;112528;1202;24038;-78
2021/09/02 07:23:56;;;;;;;11.30;3.80;;;;;;;14.43;87.36;101219.10;112727;1202;25355;-79
2021/09/02 07:26:26;;;;;;;12.80;3.90;;;;;;;14.51;87.21;101216.08;112682;1203;22454;-78
2021/09/02 07:28:58;;;;;;;13.20;3.40;;;;;;;14.60;87.28;101217.85;112461;1203;24600;-79
2021/09/02 07:31:38;;;;;;;;;;;;;;;;;;;;;
2021/09/02 07:34:11;;;;;;;11.00;3.10;;;;;;;14.77;86.59;101221.98;112660;1203;23671;-79
2021/09/02 07:36:42;;;;;;;17.70;3.80;;;;;;;14.85;86.32;101224.36;112883;1202;22461;-78
2021/09/02 07:39:14;;;;;;;10.70;2.70;;;;;;;14.91;86.15;101217.58;112599;1204;25669;-79
2021/09/02 07:41:46;;;;;;;12.20;3.80;;;;;;;14.99;85.76;101223.48;112744;1203;22456;-79
2021/09/02 07:44:18;;;;;;;9.30;2.90;;;;;;;15.06;85.79;101228.05;112889;1204;25202;-79
2021/09/02 07:46:49;;;;;;;12.20;3.30;;;;;;;15.14;85.58;101232.77;112711;1203;22481;-78
2021/09/02 07:49:20;;;;;;;11.70;2.40;;;;;;;15.21;84.75;101231.51;112628;1202;22477;-78
2021/09/02 07:51:53;;;;;;;13.10;2.50;;;;;;;15.28;84.52;101233.20;112623;1202;24066;-79
2021/09/02 07:54:25;;;;;;;7.30;2.00;;;;;;;15.38;84.25;101238.73;112624;1202;22889;-78
2021/09/02 07:56:55;;;;;;;12.30;3.20;;;;;;;15.46;84.30;101238.32;112652;1202;22460;-78
2021/09/02 07:59:26;;;;;;;9.50;2.80;;;;;;;15.53;84.50;101234.13;112623;1202;24098;-79
2021/09/02 08:01:58;;;;;;;8.50;2.20;;;;;;;15.61;83.68;101228.66;112653;1202;25219;-78
2021/09/02 08:04:30;;;;;;;9.40;2.50;;;;;;;15.69;83.69;101228.27;112750;1203;24037;-78
2021/09/02 08:07:02;;;;;;;10.50;1.90;;;;;;;15.78;83.62;101231.11;112812;1203;22499;-79
2021/09/02 08:09:34;;;;;;;10.20;2.40;;;;;;;15.89;83.10;101233.66;112904;1203;24163;-79
2021/09/02 08:12:06;;;;;;;8.10;1.70;;;;;;;15.99;82.48;101235.42;112986;1202;24022;-79
2021/09/02 08:14:37;;;;;;;6.80;1.60;;;;;;;16.05;81.09;101237.45;113002;1203;23037;-80
2021/09/02 08:17:07;;;;;;;8.00;1.90;;;;;;;16.10;81.85;101231.37;112869;1202;22458;-79
2021/09/02 08:19:39;;;;;;;8.90;2.00;;;;;;;16.16;81.36;101232.05;112856;1203;22915;-79
2021/09/02 08:22:10;;;;;;;8.90;2.00;;;;;;;16.25;81.26;101235.48;112887;1203;22440;-79
2021/09/02 08:24:42;;;;;;;8.80;2.10;;;;;;;16.32;81.22;101233.68;112725;1201;22467;-78
2021/09/02 08:27:13;;;;;;;7.40;2.00;;;;;;;16.40;80.92;101235.20;112865;1203;23040;-79
2021/09/02 08:29:47;;;;;;;8.60;2.00;;;;;;;16.46;80.99;101236.55;113023;1204;22479;-79
2021/09/02 08:32:19;;;;;;;7.90;2.00;;;;;;;16.53;80.48;101239.46;113029;1202;24110;-79
2021/09/02 08:34:50;;;;;;;6.10;1.60;;;;;;;16.62;80.10;101240.65;112867;1202;24045;-78
2021/09/02 08:37:20;;;;;;;8.10;1.70;;;;;;;16.70;79.94;101236.17;112754;1203;25215;-79
2021/09/02 08:39:53;;;;;;;7.00;1.70;;;;;;;16.78;79.45;101234.30;112908;1203;22435;-79
2021/09/02 08:42:26;;;;;;;8.30;1.60;;;;;;;16.86;78.79;101233.08;112975;1203;22557;-79
2021/09/02 08:44:57;;;;;;;7.10;1.60;;;;;;;16.95;78.92;101231.73;113037;1202;25348;-79
2021/09/02 08:47:28;;;;;;;8.10;1.70;;;;;;;17.04;78.05;101240.48;112434;1198;83235;-65
2021/09/02 08:50:00;;;;;;;8.50;1.80;;;;;;;17.08;77.49;101238.86;111724;1202;22443;-65
2021/09/02 08:52:31;;;;;;;9.50;1.70;;;;;;;17.12;77.09;101239.73;111689;1202;22436;-65
2021/09/02 08:55:04;;;;;;;6.50;1.60;;;;;;;17.15;77.70;101244.58;111729;1203;24154;-65
2021/09/02 08:57:36;;;;;;;6.10;1.70;;;;;;;17.22;77.85;101242.88;111717;1203;22464;-65
2021/09/02 09:00:11;;;;;;;5.20;1.40;;;;;;;17.30;77.01;101244.69;111727;1202;22454;-65
2021/09/02 09:02:46;;;;;;;9.70;2.10;;;;;;;17.38;76.34;101247.06;111767;1203;25055;-64
2021/09/02 09:05:20;;;;;;;7.90;2.20;;;;;;;17.45;75.08;101245.21;111694;1202;25575;-65
2021/09/02 09:07:52;;;;;;;10.20;2.20;;;;;;;17.50;75.09;101238.95;111683;1202;22765;-65
2021/09/02 09:10:25;;;;;;;6.20;1.70;;;;;;;17.57;75.02;101239.66;111840;1203;22451;-64
2021/09/02 09:13:01;;;;;;;7.30;1.70;;;;;;;17.63;75.29;101238.42;112010;1203;22526;-64
2021/09/02 09:15:35;;;;;;;8.30;2.10;;;;;;;17.68;74.53;101239.23;112046;1203;22638;-64
2021/09/02 09:18:21;;;;;;;10.80;2.40;;;;;;;17.73;74.11;101236.33;111782;1203;22586;-65
2021/09/02 09:21:12;;;;;;;6.30;1.50;;;;;;;17.86;73.82;101237.67;111847;1203;25178;-65
2021/09/02 09:24:02;;;;;;;6.80;1.80;;;;;;;17.95;72.84;101229.25;111883;1204;22648;-65
2021/09/02 09:26:36;;;;;;;7.60;1.80;;;;;;;18.03;72.29;101234.73;111881;1202;22526;-64
2021/09/02 09:29:19;;;;;;;13.90;2.40;;;;;;;18.06;73.00;101233.06;111751;1203;22466;-64
2021/09/02 09:31:50;;;;;;;6.80;1.90;;;;;;;18.09;73.04;101233.79;111787;1202;22466;-64
2021/09/02 09:34:31;;;;;;;7.30;1.60;;;;;;;18.13;73.13;101228.24;111654;1204;24084;-64
2021/09/02 09:37:11;;;;;;;7.60;1.80;;;;;;;18.24;72.39;101233.19;111664;1202;24102;-64
2021/09/02 09:39:43;;;;;;;7.60;1.80;;;;;;;18.31;71.97;101233.45;111754;1203;22451;-64
2021/09/02 09:42:17;;;;;;;7.40;1.80;;;;;;;18.37;72.00;101235.37;111702;1203;22448;-64
2021/09/02 09:44:47;;;;;;;6.00;1.70;;;;;;;18.44;70.70;101235.21;111861;1203;22437;-65
2021/09/02 09:47:22;;;;;;;7.70;1.60;;;;;;;18.53;70.75;101235.09;111673;1203;22450;-65
2021/09/02 09:50:03;;;;;;;6.10;1.40;;;;;;;18.62;70.63;101235.21;111729;1203;22456;-65
2021/09/02 09:52:35;;;;;;;5.70;1.20;;;;;;;18.76;70.77;101229.89;111757;1203;25258;-65
2021/09/02 09:55:11;;;;;;;9.10;2.00;;;;;;;18.87;69.92;101229.28;111765;1203;24182;-65
2021/09/02 09:57:43;;;;;;;6.30;1.80;;;;;;;18.95;69.68;101229.80;111774;1203;22500;-64
2021/09/02 10:00:17;;;;;;;8.00;1.90;;;;;;;19.00;68.74;101237.11;111849;1203;22453;-65
2021/09/02 10:02:51;;;;;;;7.70;1.60;;;;;;;18.94;68.70;101229.96;111887;1203;24094;-65
2021/09/02 10:05:22;;;;;;;5.00;1.40;;;;;;;18.90;68.75;101226.31;111835;1203;22434;-65
2021/09/02 10:07:57;;;;;;;6.10;1.90;;;;;;;18.85;67.04;101228.35;111803;1203;22454;-64
2021/09/02 10:10:29;;;;;;;6.70;1.40;;;;;;;18.76;66.87;101227.56;111637;1203;24053;-65
2021/09/02 10:13:01;;;;;;;8.00;1.80;;;;;;;18.75;66.87;101227.05;111720;1202;22437;-65
2021/09/02 10:15:33;;;;;;;7.00;1.60;;;;;;;18.84;66.82;101227.89;111688;1203;25112;-64
2021/09/02 10:18:04;;;;;;;7.50;2.30;;;;;;;18.96;66.89;101226.10;111965;1202;22448;-65
2021/09/02 10:20:38;;;;;;;5.60;1.40;;;;;;;19.03;67.00;101224.36;111845;1203;22450;-65
2021/09/02 10:23:11;;;;;;;6.30;1.60;;;;;;;19.07;66.21;101230.11;111742;1203;26330;-64
2021/09/02 10:25:42;;;;;;;7.90;2.10;;;;;;;19.09;66.91;101227.08;111737;1202;24022;-64
2021/09/02 10:28:17;;;;;;;5.60;1.40;;;;;;;19.06;66.01;101234.29;111703;1202;24088;-64
2021/09/02 10:30:49;;;;;;;8.10;1.90;;;;;;;19.07;65.28;101232.90;111727;1202;22441;-64
2021/09/02 10:33:41;;;;;;;6.40;1.50;;;;;;;19.10;64.55;101229.45;111762;1203;22477;-65
2021/09/02 10:36:43;;;;;;;6.30;1.50;;;;;;;19.13;63.50;101232.84;111854;1203;23389;-65
2021/09/02 10:39:40;;;;;;;9.80;1.70;;;;;;;19.20;62.94;101232.85;111774;1203;24156;-65
2021/09/02 10:42:31;;;;;;;7.10;1.90;;;;;;;19.27;63.58;101230.31;111685;1203;22550;-65
2021/09/02 10:45:03;;;;;;;6.10;1.90;;;;;;;19.39;63.04;101225.30;111704;1202;22808;-65
2021/09/02 10:47:46;;;;;;;7.30;1.70;;;;;;;19.42;62.66;101231.77;111794;1203;25288;-65
2021/09/02 10:50:22;;;;;;;8.70;2.10;;;;;;;19.36;61.46;101232.86;111816;1203;25216;-64
2021/09/02 10:52:54;;;;;;;10.00;2.10;;;;;;;19.36;62.01;101228.64;111708;1203;22534;-65
2021/09/02 10:55:34;;;;;;;7.40;1.90;;;;;;;19.38;62.07;101228.89;111783;1202;22450;-65
2021/09/02 10:58:04;;;;;;;;;;;;;;;19.46;62.25;101227.08;111893;1203;26350;-64
2021/09/02 11:00:38;;;;;;;7.90;1.90;;;;;;;19.51;61.02;101226.63;111680;1202;22449;-65
2021/09/02 11:03:18;;;;;;;7.00;2.00;;;;;;;19.58;60.79;101219.39;111776;1203;25140;-65
2021/09/02 11:05:56;;;;;;;7.30;2.00;;;;;;;19.67;61.06;101220.60;111843;1202;22448;-65
2021/09/02 11:08:40;;;;;;;6.80;1.90;;;;;;;19.78;60.62;101219.48;111984;1202;24171;-64
2021/09/02 11:11:12;;;;;;;7.80;2.00;;;;;;;19.83;61.09;101227.91;111708;1203;22381;-64
2021/09/02 11:13:45;;;;;;;9.80;2.40;;;;;;;19.79;60.83;101224.13;111844;1203;24088;-64
2021/09/02 11:16:18;;;;;;;7.30;1.80;;;;;;;19.70;60.58;101225.33;111930;1203;22448;-64
2021/09/02 11:18:51;;;;;;;8.50;2.00;;;;;;;19.71;60.34;101224.41;111832;1203;22462;-64
2021/09/02 11:21:24;;;;;;;11.90;2.50;;;;;;;19.73;60.53;101222.23;111889;1203;25029;-65
2021/09/02 11:23:59;;;;;;;9.50;2.20;;;;;;;19.78;60.15;101214.86;111837;1203;24088;-65
2021/09/02 11:26:38;;;;;;;8.90;1.80;;;;;;;19.87;59.57;101217.25;111951;1202;24113;-65
2021/09/02 11:29:10;;;;;;;8.80;2.20;;;;;;;19.94;58.99;101215.88;111707;1203;22560;-64
2021/09/02 11:31:57;;;;;;;6.20;1.80;;;;;;;19.97;58.35;101223.19;111812;1202;22484;-66
2021/09/02 11:34:29;;;;;;;7.70;1.90;;;;;;;19.95;56.85;101216.73;111834;1203;24152;-65
2021/09/02 11:37:00;;;;;;;8.90;2.20;;;;;;;19.96;57.41;101211.70;111854;1203;24042;-65
2021/09/02 11:39:34;;;;;;;7.80;1.80;;;;;;;19.99;57.12;101212.56;112091;1203;24392;-66
2021/09/02 11:42:10;;;;;;;9.00;2.20;;;;;;;20.01;57.03;101221.92;111776;1202;22450;-65
2021/09/02 11:44:47;;;;;;;6.20;1.70;;;;;;;19.98;57.29;101224.16;111737;1203;22639;-65
2021/09/02 11:47:18;;;;;;;8.00;1.90;;;;;;;20.00;56.45;101225.70;111662;1203;25117;-65
2021/09/02 11:50:00;;;;;;;8.00;1.90;;;;;;;20.00;55.99;101219.31;111692;1203;22469;-65